Time;durP1;ratioP1;P1;durP2;ratioP2;P2;SDS_P1;SDS_P2;PMS_P1;PMS_P2;Temp;Humidity;BMP_temperature;BMP_pressure;BME280_temperature;BME280_humidity;BME280_pressure;Samples;Min_cycle;Max_cycle;Signal;HPM_P1;HPM_P2
2023/09/13 00:02:16;;;;;;;29.20;20.95;;;19.40;99.90;;;;;;5032297;28;20733;-76
2023/09/13 00:04:42;;;;;;;30.58;19.58;;;19.40;99.90;;;;;;5033332;28;20444;-76
2023/09/13 00:07:07;;;;;;;28.00;19.23;;;19.40;99.90;;;;;;5033036;28;20764;-76
2023/09/13 00:09:33;;;;;;;26.97;19.33;;;19.40;99.90;;;;;;5032752;28;20387;-76
2023/09/13 00:11:58;;;;;;;28.60;18.60;;;19.40;99.90;;;;;;5032743;28;20470;-76
2023/09/13 00:14:24;;;;;;;25.13;17.93;;;19.40;99.90;;;;;;5034439;28;20390;-76
2023/09/13 00:16:50;;;;;;;24.13;17.63;;;19.30;99.90;;;;;;5034034;28;20395;-75
2023/09/13 00:19:16;;;;;;;24.45;17.90;;;19.30;99.90;;;;;;5034738;28;20778;-75
2023/09/13 00:21:42;;;;;;;27.75;17.83;;;19.40;99.90;;;;;;5032700;28;20432;-75
2023/09/13 00:24:11;;;;;;;27.27;18.63;;;19.40;99.90;;;;;;5016299;28;20419;-75
2023/09/13 00:26:37;;;;;;;26.23;18.30;;;19.20;99.90;;;;;;5033216;28;20485;-76
2023/09/13 00:29:02;;;;;;;30.52;19.48;;;19.50;99.90;;;;;;5032798;28;20383;-76
2023/09/13 00:31:28;;;;;;;27.40;19.43;;;19.30;99.90;;;;;;5015899;28;20391;-74
2023/09/13 00:33:53;;;;;;;30.93;20.40;;;19.30;99.90;;;;;;5033259;28;20419;-77
2023/09/13 00:36:19;;;;;;;36.05;22.38;;;19.30;99.90;;;;;;5033301;28;20414;-75
2023/09/13 00:38:45;;;;;;;33.35;21.75;;;19.40;99.90;;;;;;5033165;28;20387;-76
2023/09/13 00:41:10;;;;;;;32.60;21.53;;;19.50;99.90;;;;;;5034184;28;20386;-75
2023/09/13 00:43:36;;;;;;;34.15;21.85;;;19.50;99.90;;;;;;5035118;28;20383;-74
2023/09/13 00:46:02;;;;;;;30.40;20.67;;;19.50;99.90;;;;;;5035389;28;20407;-75
2023/09/13 00:48:29;;;;;;;35.63;20.60;;;19.60;99.90;;;;;;5037445;28;20383;-76
2023/09/13 00:50:56;;;;;;;33.50;20.45;;;19.60;99.90;;;;;;5037034;28;20436;-76
2023/09/13 00:53:23;;;;;;;31.52;21.80;;;19.50;99.90;;;;;;5035509;28;20387;-76
2023/09/13 00:55:51;;;;;;;28.48;20.27;;;19.40;99.90;;;;;;5035790;28;20410;-76
2023/09/13 00:58:18;;;;;;;32.47;21.38;;;19.40;99.90;;;;;;5036399;28;20527;-74
2023/09/13 01:00:44;;;;;;;30.52;20.23;;;19.30;99.90;;;;;;5045334;28;20469;-75
2023/09/13 01:03:09;;;;;;;31.02;20.00;;;19.40;99.90;;;;;;5047683;28;20402;-75
2023/09/13 01:05:36;;;;;;;30.40;19.50;;;19.40;99.90;;;;;;5047851;28;20409;-74
2023/09/13 01:08:03;;;;;;;30.00;19.90;;;19.40;99.90;;;;;;5048122;28;20827;-75
2023/09/13 01:10:28;;;;;;;28.20;18.92;;;19.40;99.90;;;;;;5031747;28;20459;-75
2023/09/13 01:12:54;;;;;;;29.05;17.35;;;19.50;99.90;;;;;;5049000;28;20429;-75
2023/09/13 01:15:20;;;;;;;25.13;16.60;;;19.50;99.90;;;;;;5040779;28;20394;-74
2023/09/13 01:17:59;;;;;;;29.10;18.95;;;19.50;99.90;;;;;;5037832;28;20738;-76
2023/09/13 01:20:45;;;;;;;29.83;18.63;;;19.50;99.90;;;;;;5016655;28;20391;-76
2023/09/13 01:23:24;;;;;;;30.63;19.00;;;19.50;99.90;;;;;;5033781;28;20929;-75
2023/09/13 01:26:19;;;;;;;34.40;20.13;;;19.50;99.90;;;;;;5015848;28;20446;-75
2023/09/13 01:28:50;;;;;;;32.17;19.08;;;19.60;99.90;;;;;;5015432;28;20413;-76
2023/09/13 01:31:18;;;;;;;37.13;21.15;;;19.60;99.90;;;;;;5015802;28;20383;-75
2023/09/13 01:33:46;;;;;;;31.42;19.20;;;19.70;99.90;;;;;;5033525;28;20375;-75
2023/09/13 01:36:12;;;;;;;34.15;19.90;;;19.70;99.90;;;;;;5033446;28;20379;-76
2023/09/13 01:38:38;;;;;;;34.97;20.15;;;19.70;99.90;;;;;;5033710;28;20396;-75
2023/09/13 01:41:29;;;;;;;32.22;20.25;;;19.70;99.90;;;;;;5033378;28;20431;-75
2023/09/13 01:43:56;;;;;;;39.70;22.35;;;19.70;99.90;;;;;;5033847;28;20379;-74
2023/09/13 01:46:27;;;;;;;36.70;20.90;;;19.70;99.90;;;;;;5033711;28;20787;-76
2023/09/13 01:48:57;;;;;;;53.10;27.27;;;19.60;99.90;;;;;;5033560;28;20491;-76
2023/09/13 01:51:25;;;;;;;58.65;30.45;;;19.70;99.90;;;;;;5033096;28;20395;-75
2023/09/13 01:53:50;;;;;;;62.13;30.90;;;19.70;99.90;;;;;;5033129;28;20383;-76
2023/09/13 01:56:21;;;;;;;63.07;33.00;;;19.60;99.90;;;;;;5033391;28;20846;-74
2023/09/13 01:58:47;;;;;;;59.00;32.55;;;19.70;99.90;;;;;;5033076;28;20751;-74
2023/09/13 02:01:13;;;;;;;62.08;33.58;;;19.60;99.90;;;;;;5033047;28;20387;-75
2023/09/13 02:03:38;;;;;;;65.15;33.03;;;19.50;99.90;;;;;;5033061;28;20452;-75
2023/09/13 02:06:04;;;;;;;71.87;35.27;;;19.60;99.90;;;;;;5033184;28;20756;-75
2023/09/13 02:08:29;;;;;;;70.60;34.50;;;19.70;99.90;;;;;;5033365;28;20765;-76
2023/09/13 02:10:55;;;;;;;78.72;37.30;;;19.70;99.90;;;;;;5033496;28;20422;-75
2023/09/13 02:13:21;;;;;;;76.00;36.37;;;19.70;99.90;;;;;;5032819;28;20395;-75
2023/09/13 02:15:46;;;;;;;79.13;37.20;;;19.60;99.90;;;;;;5032699;28;20375;-75
2023/09/13 02:18:12;;;;;;;80.17;37.67;;;19.60;99.90;;;;;;5032867;28;20728;-75
2023/09/13 02:20:38;;;;;;;79.30;38.45;;;19.70;99.90;;;;;;5032637;28;20470;-75
2023/09/13 02:23:03;;;;;;;82.60;39.40;;;19.70;99.90;;;;;;5032717;28;20402;-76
2023/09/13 02:25:29;;;;;;;78.22;39.50;;;19.60;99.90;;;;;;5032484;28;20386;-75
2023/09/13 02:27:54;;;;;;;77.70;39.78;;;19.60;99.90;;;;;;5033069;28;20384;-74
2023/09/13 02:30:22;;;;;;;81.67;39.63;;;19.70;99.90;;;;;;5033963;28;20450;-75
2023/09/13 02:32:49;;;;;;;75.60;39.67;;;19.70;99.90;;;;;;5032159;28;20379;-74
2023/09/13 02:35:14;;;;;;;86.17;39.50;;;19.70;99.90;;;;;;5032022;28;20395;-75
2023/09/13 02:37:40;;;;;;;83.80;42.13;;;19.70;99.90;;;;;;5032177;28;20383;-76
2023/09/13 02:40:06;;;;;;;77.18;40.05;;;19.70;99.90;;;;;;5032477;28;20721;-74
2023/09/13 02:42:32;;;;;;;82.95;41.03;;;19.70;99.90;;;;;;5032299;28;20953;-76
2023/09/13 02:44:58;;;;;;;83.38;42.38;;;19.70;99.90;;;;;;5033024;28;20387;-75
2023/09/13 02:47:23;;;;;;;85.18;41.47;;;19.70;99.90;;;;;;5031966;28;20447;-75
2023/09/13 02:49:49;;;;;;;83.60;40.70;;;19.70;99.90;;;;;;5031767;28;20391;-75
2023/09/13 02:52:16;;;;;;;86.95;42.20;;;19.70;99.90;;;;;;5031568;28;20394;-74
2023/09/13 02:54:44;;;;;;;86.15;42.67;;;19.70;99.90;;;;;;5031690;28;20868;-75
2023/09/13 02:57:09;;;;;;;91.93;42.47;;;19.60;99.90;;;;;;5031941;28;20724;-74
2023/09/13 02:59:35;;;;;;;97.35;43.72;;;19.70;99.90;;;;;;5031748;28;20387;-75
2023/09/13 03:02:00;;;;;;;91.20;42.53;;;19.70;99.90;;;;;;5031824;28;20490;-75
2023/09/13 03:04:26;;;;;;;86.85;43.60;;;19.70;99.90;;;;;;5014347;28;20403;-76
2023/09/13 03:06:52;;;;;;;91.17;42.53;;;19.80;99.90;;;;;;5038623;28;20437;-76
2023/09/13 03:09:17;;;;;;;87.03;44.55;;;19.80;99.90;;;;;;5035938;28;20462;-77
2023/09/13 03:11:43;;;;;;;88.70;44.57;;;19.70;99.90;;;;;;5034272;28;20379;-76
2023/09/13 03:14:08;;;;;;;94.60;45.67;;;19.70;99.90;;;;;;5034846;28;20390;-76
2023/09/13 03:16:34;;;;;;;91.70;45.20;;;19.70;99.90;;;;;;5034354;28;20477;-76
2023/09/13 03:19:00;;;;;;;95.03;45.87;;;19.60;99.90;;;;;;5034244;28;20799;-76
2023/09/13 03:21:27;;;;;;;99.35;46.90;;;19.50;99.90;;;;;;5037781;28;20383;-76
2023/09/13 03:23:53;;;;;;;99.17;47.37;;;19.50;99.90;;;;;;5039686;28;20821;-76
2023/09/13 03:26:22;;;;;;;101.47;47.47;;;19.40;99.90;;;;;;5036586;28;20410;-76
2023/09/13 03:28:49;;;;;;;100.63;46.70;;;19.50;99.90;;;;;;5034655;28;20386;-76
2023/09/13 03:31:16;;;;;;;95.57;46.78;;;19.40;99.90;;;;;;5034598;28;20402;-75
2023/09/13 03:33:43;;;;;;;98.65;47.20;;;19.30;99.90;;;;;;5033768;28;20413;-76
2023/09/13 03:36:10;;;;;;;98.75;46.90;;;19.30;99.90;;;;;;5034090;28;20433;-77
2023/09/13 03:38:40;;;;;;;99.72;45.22;;;19.30;99.90;;;;;;5034516;28;20411;-77
2023/09/13 03:41:10;;;;;;;105.07;47.00;;;19.30;99.90;;;;;;5034425;28;20414;-75
2023/09/13 03:43:36;;;;;;;100.63;46.85;;;19.30;99.90;;;;;;5034851;28;20418;-77
2023/09/13 03:46:03;;;;;;;105.82;47.90;;;19.40;99.90;;;;;;5034186;28;21152;-76
2023/09/13 03:48:30;;;;;;;102.60;47.25;;;19.40;99.90;;;;;;5034341;28;20383;-76
2023/09/13 03:50:56;;;;;;;98.07;46.05;;;19.40;99.90;;;;;;5036477;28;20390;-77
2023/09/13 03:53:21;;;;;;;97.03;46.78;;;19.40;99.90;;;;;;5035498;28;20458;-76
2023/09/13 03:55:47;;;;;;;103.60;48.03;;;19.30;99.90;;;;;;5035768;28;20390;-76
2023/09/13 03:58:12;;;;;;;100.70;46.80;;;19.40;99.90;;;;;;5020845;28;20391;-76
2023/09/13 04:00:38;;;;;;;98.65;46.63;;;19.40;99.90;;;;;;5019737;28;20880;-77
2023/09/13 04:03:04;;;;;;;104.50;47.90;;;19.50;99.00;;;;;;5039065;28;20391;-77
2023/09/13 04:05:30;;;;;;;99.50;47.70;;;19.50;99.30;;;;;;5038200;28;20399;-77
2023/09/13 04:07:59;;;;;;;95.03;47.97;;;19.50;99.90;;;;;;5036184;28;20402;-76
2023/09/13 04:10:24;;;;;;;100.70;48.08;;;19.50;99.90;;;;;;5035484;28;20470;-76
2023/09/13 04:12:50;;;;;;;100.32;48.17;;;19.50;99.90;;;;;;5033946;28;20472;-76
2023/09/13 04:15:16;;;;;;;101.93;47.73;;;19.50;99.80;;;;;;5035079;28;20390;-76
2023/09/13 04:17:42;;;;;;;99.23;48.60;;;19.60;98.20;;;;;;5038456;28;20401;-76
2023/09/13 04:20:10;;;;;;;101.90;50.60;;;19.60;97.40;;;;;;5040109;28;20832;-76
2023/09/13 04:22:36;;;;;;;114.15;50.13;;;19.60;96.10;;;;;;5034729;28;20489;-74
2023/09/13 04:25:02;;;;;;;116.32;52.80;;;19.60;96.30;;;;;;5034628;28;20415;-74
2023/09/13 04:27:27;;;;;;;108.40;50.30;;;19.50;97.60;;;;;;5034053;28;20447;-76
2023/09/13 04:29:54;;;;;;;111.23;51.93;;;19.30;99.80;;;;;;5038332;28;20394;-76
2023/09/13 04:32:21;;;;;;;112.15;51.75;;;19.40;99.90;;;;;;5040753;28;20387;-76
2023/09/13 04:34:46;;;;;;;118.03;52.63;;;19.30;99.90;;;;;;5043118;28;20386;-76
2023/09/13 04:37:12;;;;;;;112.40;53.10;;;19.10;99.90;;;;;;5026144;28;20391;-76
2023/09/13 04:39:38;;;;;;;119.75;52.35;;;19.10;99.90;;;;;;5040068;28;20717;-76
2023/09/13 04:42:05;;;;;;;120.32;54.70;;;19.10;99.90;;;;;;5040409;28;20387;-75
2023/09/13 04:44:30;;;;;;;123.32;54.88;;;19.10;99.90;;;;;;5039403;28;20481;-76
2023/09/13 04:46:57;;;;;;;122.27;55.00;;;19.30;99.90;;;;;;5040287;28;20491;-76
2023/09/13 04:49:24;;;;;;;117.20;53.88;;;19.30;99.90;;;;;;5042764;28;20462;-75
2023/09/13 04:51:49;;;;;;;114.88;52.03;;;19.40;99.90;;;;;;5042164;28;20457;-76
2023/09/13 04:54:15;;;;;;;115.47;53.42;;;19.50;97.50;;;;;;5040318;28;20387;-76
2023/09/13 04:56:40;;;;;;;111.03;52.27;;;19.40;97.80;;;;;;5042322;28;20398;-77
2023/09/13 04:59:06;;;;;;;110.27;52.33;;;19.50;95.70;;;;;;5044319;28;20398;-77
2023/09/13 05:01:32;;;;;;;105.07;50.58;;;19.50;93.80;;;;;;5027711;28;20418;-76
2023/09/13 05:03:58;;;;;;;111.90;52.10;;;19.50;91.80;;;;;;5043170;28;20391;-76
2023/09/13 05:06:24;;;;;;;100.15;51.10;;;19.40;92.10;;;;;;5045434;28;20413;-76
2023/09/13 05:08:52;;;;;;;103.85;50.67;;;19.30;93.10;;;;;;5026899;28;20419;-77
2023/09/13 05:11:17;;;;;;;111.40;53.30;;;19.20;94.40;;;;;;5044717;28;20390;-77
2023/09/13 05:13:47;;;;;;;111.17;51.43;;;19.10;94.90;;;;;;5043911;28;20395;-76
2023/09/13 05:16:19;;;;;;;107.70;53.83;;;19.10;95.90;;;;;;5045518;28;20943;-76
2023/09/13 05:18:45;;;;;;;110.43;54.13;;;19.10;95.90;;;;;;5043144;28;20387;-75
2023/09/13 05:21:11;;;;;;;113.32;53.45;;;19.00;97.50;;;;;;5021560;28;20399;-75
2023/09/13 05:23:36;;;;;;;115.45;55.95;;;19.00;99.20;;;;;;5042965;28;20441;-77
2023/09/13 05:26:02;;;;;;;115.45;54.65;;;19.00;97.80;;;;;;5046462;28;20405;-77
2023/09/13 05:28:33;;;;;;;120.70;56.87;;;18.90;99.80;;;;;;5029812;28;20955;-76
2023/09/13 05:30:59;;;;;;;121.75;55.40;;;19.00;99.90;;;;;;5043822;28;20382;-77
2023/09/13 05:33:25;;;;;;;122.70;56.00;;;19.30;95.90;;;;;;5024654;28;20394;-76
2023/09/13 05:35:51;;;;;;;120.30;54.15;;;19.30;95.20;;;;;;5042530;28;20390;-77
2023/09/13 05:38:17;;;;;;;122.50;57.13;;;19.30;96.20;;;;;;5041222;28;20414;-77
2023/09/13 05:40:42;;;;;;;129.40;55.40;;;19.20;96.50;;;;;;5040977;28;20391;-77
2023/09/13 05:43:08;;;;;;;119.90;55.67;;;19.20;96.20;;;;;;5038393;28;20413;-76
2023/09/13 05:45:33;;;;;;;107.33;53.33;;;19.20;96.00;;;;;;5020328;28;20384;-76
2023/09/13 05:47:59;;;;;;;114.13;54.97;;;19.30;93.10;;;;;;5038146;28;20383;-77
2023/09/13 05:50:25;;;;;;;118.60;55.38;;;19.30;93.40;;;;;;5037466;28;20379;-77
2023/09/13 05:52:51;;;;;;;112.03;53.40;;;19.30;92.30;;;;;;5037442;28;20391;-77
2023/09/13 05:55:17;;;;;;;112.57;52.90;;;19.30;91.90;;;;;;5037064;28;20391;-76
2023/09/13 05:57:42;;;;;;;112.32;51.95;;;19.40;91.80;;;;;;5036209;28;20387;-75
2023/09/13 06:00:08;;;;;;;101.47;49.03;;;19.50;88.80;;;;;;5037684;28;20906;-75
2023/09/13 06:02:37;;;;;;;97.37;49.70;;;19.40;88.70;;;;;;5036265;28;20485;-76
2023/09/13 06:05:03;;;;;;;103.20;48.85;;;19.40;88.80;;;;;;5036500;28;20437;-76
2023/09/13 06:07:29;;;;;;;103.03;48.10;;;19.40;87.50;;;;;;5035808;28;20407;-76
2023/09/13 06:09:54;;;;;;;96.38;47.60;;;19.40;86.50;;;;;;5034978;28;20426;-76
2023/09/13 06:12:20;;;;;;;93.72;47.03;;;19.50;86.70;;;;;;5035213;28;20394;-75
2023/09/13 06:14:46;;;;;;;101.30;49.10;;;19.40;87.20;;;;;;5020081;28;20387;-77
2023/09/13 06:17:12;;;;;;;91.18;45.75;;;19.40;84.80;;;;;;5040405;28;20387;-76
2023/09/13 06:19:38;;;;;;;92.70;45.87;;;19.50;82.70;;;;;;5041037;28;20390;-77
2023/09/13 06:22:04;;;;;;;98.20;45.93;;;19.50;83.50;;;;;;5040983;28;20792;-77
2023/09/13 06:24:29;;;;;;;89.10;45.80;;;19.40;83.30;;;;;;5035531;28;20751;-75
2023/09/13 06:26:55;;;;;;;87.22;44.95;;;19.40;84.80;;;;;;5034527;28;20410;-76
2023/09/13 06:29:21;;;;;;;91.53;45.15;;;19.50;83.00;;;;;;5017168;28;20387;-75
2023/09/13 06:31:48;;;;;;;103.23;47.73;;;19.50;83.00;;;;;;5035328;28;20387;-76
2023/09/13 06:34:13;;;;;;;97.17;47.43;;;19.50;84.00;;;;;;5035307;28;20474;-77
2023/09/13 06:36:40;;;;;;;88.77;45.43;;;19.40;84.60;;;;;;5016162;28;20383;-76
2023/09/13 06:39:05;;;;;;;91.63;46.30;;;19.50;82.50;;;;;;5034369;28;20387;-77
2023/09/13 06:41:31;;;;;;;97.00;47.77;;;19.60;83.70;;;;;;5033944;28;20434;-76
2023/09/13 06:43:57;;;;;;;85.10;45.38;;;19.60;81.30;;;;;;5034684;28;20460;-77
2023/09/13 06:46:22;;;;;;;95.78;46.03;;;19.60;80.40;;;;;;5034082;28;20969;-79
2023/09/13 06:48:48;;;;;;;89.80;44.67;;;19.70;79.50;;;;;;5034093;28;20409;-76
2023/09/13 06:51:13;;;;;;;86.55;43.20;;;19.70;78.70;;;;;;5034760;28;20375;-76
2023/09/13 06:53:39;;;;;;;82.70;43.73;;;19.70;78.00;;;;;;5033912;28;20419;-76
2023/09/13 06:56:04;;;;;;;85.33;42.63;;;19.80;78.50;;;;;;5017404;28;20441;-76
2023/09/13 06:58:30;;;;;;;74.78;41.08;;;19.80;77.30;;;;;;5034993;28;20394;-77
2023/09/13 07:00:55;;;;;;;74.80;40.60;;;19.90;76.60;;;;;;5033429;28;20393;-76
2023/09/13 07:03:21;;;;;;;72.20;39.63;;;20.00;75.30;;;;;;5035447;28;20438;-77
2023/09/13 07:05:49;;;;;;;72.20;39.50;;;20.00;74.60;;;;;;5038113;28;20422;-76
2023/09/13 07:08:15;;;;;;;78.40;39.80;;;20.10;70.90;;;;;;5039449;28;20407;-76
2023/09/13 07:10:40;;;;;;;75.27;39.87;;;20.10;71.80;;;;;;5039271;28;20384;-77
2023/09/13 07:13:06;;;;;;;72.10;38.63;;;20.20;70.90;;;;;;5038728;28;20391;-76
2023/09/13 07:15:32;;;;;;;72.50;38.65;;;20.30;70.90;;;;;;5038454;28;20379;-75
2023/09/13 07:17:57;;;;;;;71.90;39.70;;;20.40;66.90;;;;;;5047811;28;20403;-77
2023/09/13 07:20:23;;;;;;;79.05;39.03;;;20.40;65.50;;;;;;5019611;28;20395;-76
2023/09/13 07:22:49;;;;;;;70.68;38.45;;;20.40;66.90;;;;;;5035567;28;20395;-76
2023/09/13 07:25:15;;;;;;;68.00;36.20;;;20.30;66.50;;;;;;5054159;28;20437;-78
2023/09/13 07:27:40;;;;;;;71.60;37.67;;;20.30;64.20;;;;;;5053131;28;20495;-75
2023/09/13 07:30:09;;;;;;;74.28;37.92;;;20.20;66.00;;;;;;5033925;28;20852;-75
2023/09/13 07:32:36;;;;;;;65.53;37.03;;;20.10;67.10;;;;;;5050740;28;20397;-75
2023/09/13 07:35:03;;;;;;;63.72;34.92;;;20.10;69.20;;;;;;5038259;28;20414;-76
2023/09/13 07:37:29;;;;;;;74.60;37.70;;;20.10;68.90;;;;;;5036331;28;20406;-76
2023/09/13 07:39:56;;;;;;;64.97;35.73;;;20.10;69.60;;;;;;5046346;28;20412;-75
2023/09/13 07:42:22;;;;;;;63.63;36.03;;;20.30;64.80;;;;;;5044488;28;20461;-76
2023/09/13 07:44:48;;;;;;;61.22;34.38;;;20.50;62.60;;;;;;5053750;28;20609;-76
2023/09/13 07:47:14;;;;;;;57.93;33.10;;;20.70;59.30;;;;;;5048067;28;20980;-76
2023/09/13 07:49:39;;;;;;;61.38;34.72;;;20.90;57.50;;;;;;5033774;28;20906;-76
2023/09/13 07:52:05;;;;;;;55.17;31.52;;;20.90;56.20;;;;;;5043024;28;20415;-76
2023/09/13 07:54:31;;;;;;;62.35;33.63;;;21.00;54.70;;;;;;5051647;28;20397;-75
2023/09/13 07:56:57;;;;;;;58.63;32.27;;;21.00;56.00;;;;;;5050358;28;20822;-74
2023/09/13 07:59:22;;;;;;;56.10;31.83;;;21.00;55.50;;;;;;5013086;28;20485;-76
2023/09/13 08:01:48;;;;;;;51.93;31.73;;;20.90;53.70;;;;;;5034954;28;20385;-77
2023/09/13 08:04:14;;;;;;;52.60;29.87;;;20.90;54.20;;;;;;5048192;28;20563;-75
2023/09/13 08:06:43;;;;;;;54.88;31.00;;;21.00;54.40;;;;;;5029070;28;20418;-76
2023/09/13 08:09:09;;;;;;;50.85;30.17;;;20.80;55.40;;;;;;5027925;28;20452;-75
2023/09/13 08:11:34;;;;;;;51.08;31.17;;;20.80;55.30;;;;;;5028485;28;20420;-77
2023/09/13 08:14:00;;;;;;;47.00;28.17;;;20.90;53.20;;;;;;5047740;28;20397;-75
2023/09/13 08:16:26;;;;;;;53.00;29.30;;;21.30;50.50;;;;;;5048796;28;20881;-75
2023/09/13 08:18:51;;;;;;;48.25;27.60;;;21.50;49.80;;;;;;5052174;28;20495;-74
2023/09/13 08:21:17;;;;;;;48.63;26.45;;;21.80;48.20;;;;;;5049798;28;20456;-75
2023/09/13 08:23:43;;;;;;;45.47;26.10;;;21.80;47.60;;;;;;5048818;28;20398;-74
2023/09/13 08:26:08;;;;;;;44.15;26.35;;;21.90;47.10;;;;;;5048852;28;20973;-75
2023/09/13 08:28:34;;;;;;;45.77;26.50;;;21.60;47.10;;;;;;5048345;28;20409;-76
2023/09/13 08:31:00;;;;;;;41.33;23.77;;;21.50;48.20;;;;;;5048540;28;20459;-74
2023/09/13 08:33:26;;;;;;;37.43;22.83;;;21.30;48.60;;;;;;5049058;28;20393;-76
2023/09/13 08:35:51;;;;;;;40.50;21.23;;;21.10;48.80;;;;;;5033288;28;20402;-75
2023/09/13 08:38:17;;;;;;;38.38;20.70;;;21.10;50.10;;;;;;5036664;28;20397;-74
2023/09/13 08:40:45;;;;;;;39.67;22.93;;;20.90;51.00;;;;;;5042718;28;20460;-76
2023/09/13 08:43:12;;;;;;;41.45;23.80;;;20.70;53.70;;;;;;5030118;28;20474;-77
2023/09/13 08:45:38;;;;;;;47.58;23.80;;;20.60;55.20;;;;;;5029311;28;20418;-76
2023/09/13 08:48:07;;;;;;;42.15;22.10;;;20.50;56.70;;;;;;5035202;28;20393;-77
2023/09/13 08:50:34;;;;;;;37.50;21.43;;;20.40;55.40;;;;;;5054086;28;20385;-75
2023/09/13 08:53:02;;;;;;;38.08;19.90;;;20.30;56.40;;;;;;5057016;28;20396;-79
2023/09/13 08:55:29;;;;;;;36.07;19.57;;;20.40;55.00;;;;;;5058301;28;20832;-77
2023/09/13 08:57:59;;;;;;;33.03;18.20;;;20.60;52.40;;;;;;5052770;28;20388;-77
2023/09/13 09:00:26;;;;;;;36.38;19.60;;;20.70;52.20;;;;;;5061486;28;20427;-78
2023/09/13 09:02:54;;;;;;;31.30;17.30;;;20.90;51.10;;;;;;5054078;28;20384;-77
2023/09/13 09:05:24;;;;;;;32.67;17.77;;;21.10;50.50;;;;;;5072997;28;20404;-76
2023/09/13 09:07:50;;;;;;;30.42;17.77;;;21.30;48.70;;;;;;5073694;28;20405;-76
2023/09/13 09:10:17;;;;;;;26.58;16.05;;;21.40;47.80;;;;;;5074235;28;20393;-77
2023/09/13 09:12:46;;;;;;;26.63;16.77;;;21.50;46.10;;;;;;5073414;28;20748;-77
2023/09/13 09:15:14;;;;;;;31.13;15.57;;;21.50;46.20;;;;;;5073740;28;20372;-77
2023/09/13 09:17:42;;;;;;;26.58;16.63;;;21.60;46.10;;;;;;5074984;28;20385;-77
2023/09/13 09:20:08;;;;;;;28.27;16.60;;;21.60;45.40;;;;;;5077577;28;20479;-77
2023/09/13 09:22:34;;;;;;;30.45;18.23;;;21.70;45.00;;;;;;5076594;28;20385;-76
2023/09/13 09:25:00;;;;;;;32.13;19.27;;;21.70;45.50;;;;;;5058650;28;20400;-76
2023/09/13 09:27:26;;;;;;;37.55;20.17;;;21.70;45.30;;;;;;5059324;28;20451;-76
2023/09/13 09:30:05;;;;;;;33.70;19.80;;;21.70;46.50;;;;;;5076202;28;20477;-75
2023/09/13 09:32:31;;;;;;;39.15;21.58;;;21.70;47.00;;;;;;5058304;28;20397;-76
2023/09/13 09:34:59;;;;;;;35.13;20.20;;;21.90;46.40;;;;;;5075056;28;20461;-76
2023/09/13 09:37:32;;;;;;;33.95;18.83;;;22.20;44.60;;;;;;5057358;28;20401;-77
2023/09/13 09:39:58;;;;;;;29.20;17.43;;;22.40;42.10;;;;;;5075589;28;20385;-77
2023/09/13 09:42:24;;;;;;;37.10;19.35;;;22.50;42.30;;;;;;5074971;28;20384;-76
2023/09/13 09:44:51;;;;;;;33.75;18.73;;;22.70;41.80;;;;;;5073191;28;20385;-77
2023/09/13 09:47:17;;;;;;;30.20;18.30;;;22.80;40.70;;;;;;5051592;28;20409;-77
2023/09/13 09:49:46;;;;;;;31.20;17.60;;;23.10;38.80;;;;;;5065575;28;20378;-78
2023/09/13 09:52:12;;;;;;;25.77;16.30;;;23.10;39.00;;;;;;5046129;28;20436;-78
2023/09/13 09:54:38;;;;;;;29.20;17.50;;;23.40;38.50;;;;;;5060872;28;20385;-79
2023/09/13 09:57:04;;;;;;;30.35;17.38;;;23.60;37.30;;;;;;5068065;28;20475;-78
2023/09/13 09:59:30;;;;;;;29.08;17.38;;;23.60;36.90;;;;;;5050761;28;20762;-78
2023/09/13 10:01:57;;;;;;;32.20;18.48;;;23.30;37.70;;;;;;5046827;28;20385;-77
2023/09/13 10:04:23;;;;;;;32.85;17.85;;;23.10;38.70;;;;;;5067669;28;20382;-77
2023/09/13 10:07:05;;;;;;;32.83;17.75;;;23.00;39.30;;;;;;5065280;28;20416;-75
2023/09/13 10:09:41;;;;;;;30.07;17.60;;;23.50;37.00;;;;;;5064324;28;20385;-78
2023/09/13 10:12:09;;;;;;;27.10;16.17;;;23.80;36.10;;;;;;5045137;28;20394;-77
2023/09/13 10:14:35;;;;;;;27.20;17.27;;;24.10;34.90;;;;;;5043333;28;20401;-79
2023/09/13 10:17:03;;;;;;;28.67;16.20;;;24.30;34.20;;;;;;5059506;28;20425;-78
2023/09/13 10:19:30;;;;;;;28.60;16.40;;;24.20;34.20;;;;;;5060824;28;20474;-79
2023/09/13 10:21:56;;;;;;;24.38;15.43;;;24.10;34.90;;;;;;5061350;28;20404;-79
2023/09/13 10:24:24;;;;;;;26.50;15.40;;;24.00;34.60;;;;;;5041486;28;20763;-79
2023/09/13 10:26:53;;;;;;;27.23;15.18;;;24.00;35.60;;;;;;5058867;28;20418;-79
2023/09/13 10:29:34;;;;;;;28.45;16.05;;;24.10;34.50;;;;;;5040440;28;20401;-78
2023/09/13 10:32:07;;;;;;;23.52;14.60;;;23.90;34.70;;;;;;5060181;28;20397;-78
2023/09/13 10:34:35;;;;;;;23.20;14.45;;;23.40;35.40;;;;;;5058826;28;20390;-79
2023/09/13 10:37:26;;;;;;;23.75;13.70;;;23.00;37.00;;;;;;5059864;28;20386;-78
2023/09/13 10:40:09;;;;;;;19.93;10.47;;;22.30;40.50;;;;;;5059833;28;20397;-79
2023/09/13 10:42:39;;;;;;;20.20;12.90;;;20.70;66.80;;;;;;5067124;28;20384;-76
2023/09/13 10:45:07;;;;;;;28.40;13.45;;;19.80;82.30;;;;;;5071653;28;20412;-75
2023/09/13 10:47:33;;;;;;;24.58;14.20;;;19.30;86.50;;;;;;5053015;28;20400;-78
2023/09/13 10:50:01;;;;;;;19.05;11.27;;;19.10;90.80;;;;;;5059064;28;20381;-79
2023/09/13 10:52:27;;;;;;;18.85;12.80;;;18.90;89.70;;;;;;5041340;28;20381;-77
2023/09/13 10:54:54;;;;;;;16.83;10.90;;;19.00;96.70;;;;;;5058578;28;20750;-79
2023/09/13 10:57:21;;;;;;;16.95;9.68;;;19.20;93.20;;;;;;5040650;28;20399;-79
2023/09/13 10:59:48;;;;;;;14.57;9.00;;;19.50;92.50;;;;;;5059090;28;20389;-77
2023/09/13 11:02:14;;;;;;;14.98;8.18;;;19.50;81.60;;;;;;5068653;28;20385;-76
2023/09/13 11:04:40;;;;;;;12.07;9.60;;;19.40;81.60;;;;;;5051489;28;20393;-78
2023/09/13 11:07:06;;;;;;;16.73;10.43;;;19.40;81.40;;;;;;5060795;28;20420;-78
2023/09/13 11:09:32;;;;;;;18.20;12.60;;;19.20;80.90;;;;;;5040711;28;20393;-78
2023/09/13 11:11:58;;;;;;;20.73;13.80;;;18.90;82.80;;;;;;5058352;28;20389;-79
2023/09/13 11:14:25;;;;;;;23.13;15.83;;;18.70;86.20;;;;;;5048968;28;20447;-77
2023/09/13 11:16:51;;;;;;;21.67;15.27;;;18.40;86.50;;;;;;5066805;28;20396;-78
2023/09/13 11:19:17;;;;;;;15.47;10.10;;;18.40;86.90;;;;;;5048287;28;20532;-78
2023/09/13 11:21:51;;;;;;;12.43;7.67;;;18.50;83.90;;;;;;5052206;28;20396;-77
2023/09/13 11:24:43;;;;;;;7.50;6.00;;;18.60;77.90;;;;;;5062685;28;20416;-80
2023/09/13 11:27:12;;;;;;;8.30;4.32;;;18.80;72.70;;;;;;5058980;28;20420;-78
2023/09/13 11:29:46;;;;;;;6.40;5.00;;;18.70;66.80;;;;;;5059126;28;20408;-78
2023/09/13 11:32:25;;;;;;;11.00;5.50;;;18.70;69.80;;;;;;5058477;28;20497;-79
2023/09/13 11:34:59;;;;;;;11.00;4.85;;;18.80;70.60;;;;;;5060911;28;20407;-78
2023/09/13 11:37:25;;;;;;;7.32;4.20;;;19.00;65.40;;;;;;5041301;28;20443;-78
2023/09/13 11:39:55;;;;;;;6.90;4.20;;;18.90;62.40;;;;;;5040082;28;20385;-78
2023/09/13 11:42:28;;;;;;;6.00;4.60;;;19.00;59.00;;;;;;5040059;28;20381;-78
2023/09/13 11:44:54;;;;;;;6.95;3.85;;;19.20;59.90;;;;;;5042076;28;20392;-77
2023/09/13 11:47:20;;;;;;;6.57;3.30;;;19.50;59.80;;;;;;5059074;28;20656;-79
2023/09/13 11:49:47;;;;;;;6.75;3.50;;;19.60;53.90;;;;;;5062597;28;20452;-78
2023/09/13 11:52:13;;;;;;;6.63;3.83;;;19.80;56.00;;;;;;5040386;28;20385;-77
2023/09/13 11:55:11;;;;;;;7.07;3.53;;;20.00;54.50;;;;;;5060448;28;20393;-79
2023/09/13 11:57:51;;;;;;;5.35;3.70;;;20.20;51.80;;;;;;4986783;28;20451;-76
2023/09/13 12:00:19;;;;;;;9.68;3.30;;;19.90;48.20;;;;;;5058013;28;20773;-79
2023/09/13 12:02:45;;;;;;;6.57;3.50;;;19.90;49.80;;;;;;5058313;28;20374;-80
2023/09/13 12:05:12;;;;;;;7.15;3.90;;;20.00;51.00;;;;;;5041898;28;20374;-79
2023/09/13 12:07:37;;;;;;;6.80;3.70;;;20.10;51.80;;;;;;5059216;28;20398;-79
2023/09/13 12:10:04;;;;;;;9.68;4.05;;;20.40;47.70;;;;;;5059089;28;20397;-79
2023/09/13 12:12:41;;;;;;;5.95;4.20;;;20.40;46.10;;;;;;5041849;28;20389;-79
2023/09/13 12:15:13;;;;;;;7.38;4.40;;;20.50;47.60;;;;;;5065945;28;20381;-78
2023/09/13 12:17:39;;;;;;;8.30;5.33;;;20.50;45.10;;;;;;5067697;28;20382;-78
2023/09/13 12:20:13;;;;;;;8.20;4.77;;;20.70;45.60;;;;;;5067044;28;20397;-79
2023/09/13 12:22:40;;;;;;;10.75;4.13;;;20.20;45.70;;;;;;5045475;28;20393;-78
2023/09/13 12:25:13;;;;;;;6.00;3.70;;;20.00;45.80;;;;;;5059337;28;20382;-81
2023/09/13 12:27:40;;;;;;;6.03;3.70;;;20.00;48.00;;;;;;5039065;28;20401;-78